sensor_id;sensor_type;location;lat;lon;timestamp;temperature;humidity
3136;DHT22;1578;47.658;9.922;2023-12-20T00:00:55;3.20;71.30
3136;DHT22;1578;47.658;9.922;2023-12-20T00:03:20;3.20;69.70
3136;DHT22;1578;47.658;9.922;2023-12-20T00:05:47;3.30;69.40
3136;DHT22;1578;47.658;9.922;2023-12-20T00:08:13;3.40;68.80
3136;DHT22;1578;47.658;9.922;2023-12-20T00:10:38;3.50;66.70
3136;DHT22;1578;47.658;9.922;2023-12-20T00:13:04;3.60;64.50
3136;DHT22;1578;47.658;9.922;2023-12-20T00:15:29;3.60;62.80
3136;DHT22;1578;47.658;9.922;2023-12-20T00:17:55;3.70;63.70
3136;DHT22;1578;47.658;9.922;2023-12-20T00:20:21;3.60;65.10
3136;DHT22;1578;47.658;9.922;2023-12-20T00:22:46;3.60;66.20
3136;DHT22;1578;47.658;9.922;2023-12-20T00:25:12;3.50;66.80
3136;DHT22;1578;47.658;9.922;2023-12-20T00:27:37;3.60;65.40
3136;DHT22;1578;47.658;9.922;2023-12-20T00:30:03;3.50;66.30
3136;DHT22;1578;47.658;9.922;2023-12-20T00:32:29;3.50;66.60
3136;DHT22;1578;47.658;9.922;2023-12-20T00:34:55;3.50;68.30
3136;DHT22;1578;47.658;9.922;2023-12-20T00:37:20;3.30;68.40
3136;DHT22;1578;47.658;9.922;2023-12-20T00:39:46;3.30;69.30
3136;DHT22;1578;47.658;9.922;2023-12-20T00:42:12;3.40;67.90
3136;DHT22;1578;47.658;9.922;2023-12-20T00:44:37;3.40;66.80
3136;DHT22;1578;47.658;9.922;2023-12-20T00:47:03;3.30;68.50
3136;DHT22;1578;47.658;9.922;2023-12-20T00:49:28;3.30;68.50
3136;DHT22;1578;47.658;9.922;2023-12-20T00:51:54;3.30;68.60
3136;DHT22;1578;47.658;9.922;2023-12-20T00:54:20;3.30;68.80
3136;DHT22;1578;47.658;9.922;2023-12-20T00:56:45;3.30;70.00
3136;DHT22;1578;47.658;9.922;2023-12-20T00:59:11;3.10;69.40
3136;DHT22;1578;47.658;9.922;2023-12-20T01:01:36;3.20;71.20
3136;DHT22;1578;47.658;9.922;2023-12-20T01:04:02;2.90;73.50
3136;DHT22;1578;47.658;9.922;2023-12-20T01:06:28;2.80;78.40
3136;DHT22;1578;47.658;9.922;2023-12-20T01:08:53;3.00;76.30
3136;DHT22;1578;47.658;9.922;2023-12-20T01:11:19;3.00;76.40
3136;DHT22;1578;47.658;9.922;2023-12-20T01:13:44;3.00;75.20
3136;DHT22;1578;47.658;9.922;2023-12-20T01:16:11;3.00;75.40
3136;DHT22;1578;47.658;9.922;2023-12-20T01:18:37;3.10;75.00
3136;DHT22;1578;47.658;9.922;2023-12-20T01:21:04;3.10;75.40
3136;DHT22;1578;47.658;9.922;2023-12-20T01:23:29;3.10;74.40
3136;DHT22;1578;47.658;9.922;2023-12-20T01:25:55;3.10;75.20
3136;DHT22;1578;47.658;9.922;2023-12-20T01:28:20;3.00;75.70
3136;DHT22;1578;47.658;9.922;2023-12-20T01:30:46;3.00;75.80
3136;DHT22;1578;47.658;9.922;2023-12-20T01:33:12;3.00;76.00
3136;DHT22;1578;47.658;9.922;2023-12-20T01:35:37;3.00;76.20
3136;DHT22;1578;47.658;9.922;2023-12-20T01:38:03;2.90;77.80
3136;DHT22;1578;47.658;9.922;2023-12-20T01:40:29;2.90;77.20
3136;DHT22;1578;47.658;9.922;2023-12-20T01:43:02;2.90;77.90
3136;DHT22;1578;47.658;9.922;2023-12-20T01:45:28;2.90;80.10
3136;DHT22;1578;47.658;9.922;2023-12-20T01:47:55;2.90;77.90
3136;DHT22;1578;47.658;9.922;2023-12-20T01:50:21;2.90;79.60
3136;DHT22;1578;47.658;9.922;2023-12-20T01:52:47;3.00;79.00
3136;DHT22;1578;47.658;9.922;2023-12-20T01:55:13;3.00;77.50
3136;DHT22;1578;47.658;9.922;2023-12-20T01:57:42;3.00;78.00
3136;DHT22;1578;47.658;9.922;2023-12-20T02:00:09;3.00;76.10
3136;DHT22;1578;47.658;9.922;2023-12-20T02:02:37;3.10;76.70
3136;DHT22;1578;47.658;9.922;2023-12-20T02:05:08;3.10;76.80
3136;DHT22;1578;47.658;9.922;2023-12-20T02:07:33;3.10;76.70
3136;DHT22;1578;47.658;9.922;2023-12-20T02:10:02;3.10;78.80
3136;DHT22;1578;47.658;9.922;2023-12-20T02:12:29;3.10;78.10
3136;DHT22;1578;47.658;9.922;2023-12-20T02:14:55;3.20;78.20
3136;DHT22;1578;47.658;9.922;2023-12-20T02:17:22;3.20;77.60
3136;DHT22;1578;47.658;9.922;2023-12-20T02:19:49;3.20;75.90
3136;DHT22;1578;47.658;9.922;2023-12-20T02:22:14;3.10;77.50
3136;DHT22;1578;47.658;9.922;2023-12-20T02:24:40;3.10;78.10
3136;DHT22;1578;47.658;9.922;2023-12-20T02:27:06;3.20;77.30
3136;DHT22;1578;47.658;9.922;2023-12-20T02:29:33;3.20;76.00
3136;DHT22;1578;47.658;9.922;2023-12-20T02:31:59;3.30;74.80
3136;DHT22;1578;47.658;9.922;2023-12-20T02:34:26;3.20;75.50
3136;DHT22;1578;47.658;9.922;2023-12-20T02:36:52;3.30;74.70
3136;DHT22;1578;47.658;9.922;2023-12-20T02:39:18;3.40;73.30
3136;DHT22;1578;47.658;9.922;2023-12-20T02:41:44;3.40;73.60
3136;DHT22;1578;47.658;9.922;2023-12-20T02:44:10;3.40;73.40
3136;DHT22;1578;47.658;9.922;2023-12-20T02:46:35;3.40;73.90
3136;DHT22;1578;47.658;9.922;2023-12-20T02:49:01;3.30;74.10
3136;DHT22;1578;47.658;9.922;2023-12-20T02:51:27;3.30;75.70
3136;DHT22;1578;47.658;9.922;2023-12-20T02:53:52;3.60;68.50
3136;DHT22;1578;47.658;9.922;2023-12-20T02:56:18;3.60;69.60
3136;DHT22;1578;47.658;9.922;2023-12-20T02:58:43;3.70;71.10
3136;DHT22;1578;47.658;9.922;2023-12-20T03:01:09;3.70;69.70
3136;DHT22;1578;47.658;9.922;2023-12-20T03:03:35;3.70;67.30
3136;DHT22;1578;47.658;9.922;2023-12-20T03:06:00;3.70;68.70
3136;DHT22;1578;47.658;9.922;2023-12-20T03:08:26;3.70;68.80
3136;DHT22;1578;47.658;9.922;2023-12-20T03:10:51;3.80;65.90
3136;DHT22;1578;47.658;9.922;2023-12-20T03:13:18;4.30;53.90
3136;DHT22;1578;47.658;9.922;2023-12-20T03:15:45;4.70;47.70
3136;DHT22;1578;47.658;9.922;2023-12-20T03:18:10;5.00;46.60
3136;DHT22;1578;47.658;9.922;2023-12-20T03:20:36;5.20;44.30
3136;DHT22;1578;47.658;9.922;2023-12-20T03:23:02;5.30;44.50
3136;DHT22;1578;47.658;9.922;2023-12-20T03:25:27;5.30;44.50
3136;DHT22;1578;47.658;9.922;2023-12-20T03:27:53;5.20;45.00
3136;DHT22;1578;47.658;9.922;2023-12-20T03:30:19;5.20;44.70
3136;DHT22;1578;47.658;9.922;2023-12-20T03:32:45;5.10;46.30
3136;DHT22;1578;47.658;9.922;2023-12-20T03:35:11;4.90;48.60
3136;DHT22;1578;47.658;9.922;2023-12-20T03:37:36;4.70;51.60
3136;DHT22;1578;47.658;9.922;2023-12-20T03:40:02;4.50;55.70
3136;DHT22;1578;47.658;9.922;2023-12-20T03:42:28;4.40;58.70
3136;DHT22;1578;47.658;9.922;2023-12-20T03:44:54;4.20;62.30
3136;DHT22;1578;47.658;9.922;2023-12-20T03:47:19;4.10;66.30
3136;DHT22;1578;47.658;9.922;2023-12-20T03:49:45;4.10;68.40
3136;DHT22;1578;47.658;9.922;2023-12-20T03:52:10;4.00;70.30
3136;DHT22;1578;47.658;9.922;2023-12-20T03:54:36;4.00;72.60
3136;DHT22;1578;47.658;9.922;2023-12-20T03:57:02;4.00;73.80
3136;DHT22;1578;47.658;9.922;2023-12-20T03:59:27;4.00;74.40
3136;DHT22;1578;47.658;9.922;2023-12-20T04:01:53;3.90;75.00
3136;DHT22;1578;47.658;9.922;2023-12-20T04:04:19;4.00;77.30
3136;DHT22;1578;47.658;9.922;2023-12-20T04:06:44;4.10;76.30
3136;DHT22;1578;47.658;9.922;2023-12-20T04:09:10;4.10;76.70
3136;DHT22;1578;47.658;9.922;2023-12-20T04:11:37;4.10;76.00
3136;DHT22;1578;47.658;9.922;2023-12-20T04:14:03;4.00;76.40
3136;DHT22;1578;47.658;9.922;2023-12-20T04:16:30;4.00;77.20
3136;DHT22;1578;47.658;9.922;2023-12-20T04:18:56;4.00;77.00
3136;DHT22;1578;47.658;9.922;2023-12-20T04:21:21;4.10;75.80
3136;DHT22;1578;47.658;9.922;2023-12-20T04:23:47;4.00;76.40
3136;DHT22;1578;47.658;9.922;2023-12-20T04:26:12;4.00;76.70
3136;DHT22;1578;47.658;9.922;2023-12-20T04:28:38;4.00;77.60
3136;DHT22;1578;47.658;9.922;2023-12-20T04:31:03;4.00;80.80
3136;DHT22;1578;47.658;9.922;2023-12-20T04:33:29;4.00;80.80
3136;DHT22;1578;47.658;9.922;2023-12-20T04:35:55;4.00;81.90
3136;DHT22;1578;47.658;9.922;2023-12-20T04:38:20;4.00;82.60
3136;DHT22;1578;47.658;9.922;2023-12-20T04:40:46;3.90;82.00
3136;DHT22;1578;47.658;9.922;2023-12-20T04:43:11;3.80;82.00
3136;DHT22;1578;47.658;9.922;2023-12-20T04:45:37;3.80;85.10
3136;DHT22;1578;47.658;9.922;2023-12-20T04:48:03;3.80;85.60
3136;DHT22;1578;47.658;9.922;2023-12-20T04:50:29;3.90;85.40
3136;DHT22;1578;47.658;9.922;2023-12-20T04:52:55;3.90;85.60
3136;DHT22;1578;47.658;9.922;2023-12-20T04:55:20;3.80;85.60
3136;DHT22;1578;47.658;9.922;2023-12-20T04:57:46;3.80;88.10
3136;DHT22;1578;47.658;9.922;2023-12-20T05:00:12;3.80;90.00
3136;DHT22;1578;47.658;9.922;2023-12-20T05:02:39;3.70;89.20
3136;DHT22;1578;47.658;9.922;2023-12-20T05:05:05;3.70;90.70
3136;DHT22;1578;47.658;9.922;2023-12-20T05:07:30;3.60;91.10
3136;DHT22;1578;47.658;9.922;2023-12-20T05:09:56;3.60;91.90
3136;DHT22;1578;47.658;9.922;2023-12-20T05:12:21;3.50;92.10
3136;DHT22;1578;47.658;9.922;2023-12-20T05:14:47;3.50;92.50
3136;DHT22;1578;47.658;9.922;2023-12-20T05:17:12;3.40;93.10
3136;DHT22;1578;47.658;9.922;2023-12-20T05:19:38;3.40;93.50
3136;DHT22;1578;47.658;9.922;2023-12-20T05:22:04;3.30;93.60
3136;DHT22;1578;47.658;9.922;2023-12-20T05:24:29;3.30;93.80
3136;DHT22;1578;47.658;9.922;2023-12-20T05:26:55;3.30;94.70
3136;DHT22;1578;47.658;9.922;2023-12-20T05:29:20;3.50;94.30
3136;DHT22;1578;47.658;9.922;2023-12-20T05:31:46;3.40;94.00
3136;DHT22;1578;47.658;9.922;2023-12-20T05:34:11;3.40;94.30
3136;DHT22;1578;47.658;9.922;2023-12-20T05:36:37;3.50;94.70
3136;DHT22;1578;47.658;9.922;2023-12-20T05:39:03;3.40;94.30
3136;DHT22;1578;47.658;9.922;2023-12-20T05:41:30;3.50;94.80
3136;DHT22;1578;47.658;9.922;2023-12-20T05:43:56;3.40;95.50
3136;DHT22;1578;47.658;9.922;2023-12-20T05:46:23;3.40;96.80
3136;DHT22;1578;47.658;9.922;2023-12-20T05:48:49;3.50;97.30
3136;DHT22;1578;47.658;9.922;2023-12-20T05:51:15;3.50;97.80
3136;DHT22;1578;47.658;9.922;2023-12-20T05:53:40;3.60;98.40
3136;DHT22;1578;47.658;9.922;2023-12-20T05:56:06;3.60;98.10
3136;DHT22;1578;47.658;9.922;2023-12-20T05:58:33;3.60;98.10
3136;DHT22;1578;47.658;9.922;2023-12-20T06:00:58;3.60;98.40
3136;DHT22;1578;47.658;9.922;2023-12-20T06:03:24;3.70;98.10
3136;DHT22;1578;47.658;9.922;2023-12-20T06:05:49;3.80;97.80
3136;DHT22;1578;47.658;9.922;2023-12-20T06:08:15;3.80;97.70
3136;DHT22;1578;47.658;9.922;2023-12-20T06:10:41;3.80;98.10
3136;DHT22;1578;47.658;9.922;2023-12-20T06:13:06;3.80;98.20
3136;DHT22;1578;47.658;9.922;2023-12-20T06:15:32;3.80;98.20
3136;DHT22;1578;47.658;9.922;2023-12-20T06:17:58;3.80;97.10
3136;DHT22;1578;47.658;9.922;2023-12-20T06:20:23;3.80;98.20
3136;DHT22;1578;47.658;9.922;2023-12-20T06:22:50;3.70;97.50
3136;DHT22;1578;47.658;9.922;2023-12-20T06:25:16;3.70;98.10
3136;DHT22;1578;47.658;9.922;2023-12-20T06:27:41;3.80;98.60
3136;DHT22;1578;47.658;9.922;2023-12-20T06:30:07;3.80;98.00
3136;DHT22;1578;47.658;9.922;2023-12-20T06:32:36;3.80;98.10
3136;DHT22;1578;47.658;9.922;2023-12-20T06:35:03;3.80;97.70
3136;DHT22;1578;47.658;9.922;2023-12-20T06:37:30;3.80;97.60
3136;DHT22;1578;47.658;9.922;2023-12-20T06:39:56;3.80;98.20
3136;DHT22;1578;47.658;9.922;2023-12-20T06:42:22;3.80;98.20
3136;DHT22;1578;47.658;9.922;2023-12-20T06:44:48;3.80;98.70
3136;DHT22;1578;47.658;9.922;2023-12-20T06:47:13;3.90;98.70
3136;DHT22;1578;47.658;9.922;2023-12-20T06:49:40;3.90;98.20
3136;DHT22;1578;47.658;9.922;2023-12-20T06:52:05;3.90;99.10
3136;DHT22;1578;47.658;9.922;2023-12-20T06:54:31;3.90;98.20
3136;DHT22;1578;47.658;9.922;2023-12-20T06:56:57;3.90;98.90
3136;DHT22;1578;47.658;9.922;2023-12-20T06:59:22;4.00;98.60
3136;DHT22;1578;47.658;9.922;2023-12-20T07:01:48;4.00;98.20
3136;DHT22;1578;47.658;9.922;2023-12-20T07:04:15;4.00;98.60
3136;DHT22;1578;47.658;9.922;2023-12-20T07:06:40;4.10;98.30
3136;DHT22;1578;47.658;9.922;2023-12-20T07:09:06;4.10;98.50
3136;DHT22;1578;47.658;9.922;2023-12-20T07:11:32;4.10;98.30
3136;DHT22;1578;47.658;9.922;2023-12-20T07:13:57;4.10;98.40
3136;DHT22;1578;47.658;9.922;2023-12-20T07:16:23;4.10;98.00
3136;DHT22;1578;47.658;9.922;2023-12-20T07:18:48;4.10;97.80
3136;DHT22;1578;47.658;9.922;2023-12-20T07:21:14;4.10;97.70
3136;DHT22;1578;47.658;9.922;2023-12-20T07:23:39;4.10;97.80
3136;DHT22;1578;47.658;9.922;2023-12-20T07:26:05;4.10;97.70
3136;DHT22;1578;47.658;9.922;2023-12-20T07:28:31;4.20;98.30
3136;DHT22;1578;47.658;9.922;2023-12-20T07:30:57;4.20;97.60
3136;DHT22;1578;47.658;9.922;2023-12-20T07:33:22;4.20;97.30
3136;DHT22;1578;47.658;9.922;2023-12-20T07:35:48;4.20;98.20
3136;DHT22;1578;47.658;9.922;2023-12-20T07:38:13;4.20;97.20
3136;DHT22;1578;47.658;9.922;2023-12-20T07:40:39;4.20;97.80
3136;DHT22;1578;47.658;9.922;2023-12-20T07:43:05;4.20;97.50
3136;DHT22;1578;47.658;9.922;2023-12-20T07:45:30;4.20;97.70
3136;DHT22;1578;47.658;9.922;2023-12-20T07:47:56;4.30;97.10
3136;DHT22;1578;47.658;9.922;2023-12-20T07:50:21;4.20;96.80
3136;DHT22;1578;47.658;9.922;2023-12-20T07:52:47;4.20;97.70
3136;DHT22;1578;47.658;9.922;2023-12-20T07:55:12;4.30;97.80
3136;DHT22;1578;47.658;9.922;2023-12-20T07:57:38;4.30;97.10
3136;DHT22;1578;47.658;9.922;2023-12-20T08:00:04;4.30;96.10
3136;DHT22;1578;47.658;9.922;2023-12-20T08:02:30;4.20;95.80
3136;DHT22;1578;47.658;9.922;2023-12-20T08:04:56;4.30;96.90
3136;DHT22;1578;47.658;9.922;2023-12-20T08:07:21;4.20;97.00
3136;DHT22;1578;47.658;9.922;2023-12-20T08:09:47;4.20;97.10
3136;DHT22;1578;47.658;9.922;2023-12-20T08:12:13;4.20;97.20
3136;DHT22;1578;47.658;9.922;2023-12-20T08:14:38;4.20;97.00
3136;DHT22;1578;47.658;9.922;2023-12-20T08:17:04;4.10;97.50
3136;DHT22;1578;47.658;9.922;2023-12-20T08:19:29;4.20;98.00
3136;DHT22;1578;47.658;9.922;2023-12-20T08:21:55;4.20;97.90
3136;DHT22;1578;47.658;9.922;2023-12-20T08:24:20;4.20;98.30
3136;DHT22;1578;47.658;9.922;2023-12-20T08:26:46;4.20;98.30
3136;DHT22;1578;47.658;9.922;2023-12-20T08:29:15;4.30;98.60
3136;DHT22;1578;47.658;9.922;2023-12-20T08:31:40;4.30;98.40
3136;DHT22;1578;47.658;9.922;2023-12-20T08:34:06;4.40;98.40
3136;DHT22;1578;47.658;9.922;2023-12-20T08:36:32;4.40;97.70
3136;DHT22;1578;47.658;9.922;2023-12-20T08:38:57;4.40;97.40
3136;DHT22;1578;47.658;9.922;2023-12-20T08:41:23;4.40;97.40
3136;DHT22;1578;47.658;9.922;2023-12-20T08:43:48;4.50;97.70
3136;DHT22;1578;47.658;9.922;2023-12-20T08:46:14;4.40;97.40
3136;DHT22;1578;47.658;9.922;2023-12-20T08:48:40;4.50;97.70
3136;DHT22;1578;47.658;9.922;2023-12-20T08:51:06;4.60;97.70
3136;DHT22;1578;47.658;9.922;2023-12-20T08:53:33;4.50;95.90
3136;DHT22;1578;47.658;9.922;2023-12-20T08:55:59;4.60;97.00
3136;DHT22;1578;47.658;9.922;2023-12-20T08:58:27;4.60;97.20
3136;DHT22;1578;47.658;9.922;2023-12-20T09:00:53;4.60;96.90
3136;DHT22;1578;47.658;9.922;2023-12-20T09:03:18;4.70;96.50
3136;DHT22;1578;47.658;9.922;2023-12-20T09:05:44;4.70;97.10
3136;DHT22;1578;47.658;9.922;2023-12-20T09:08:10;4.70;96.70
3136;DHT22;1578;47.658;9.922;2023-12-20T09:10:37;4.70;95.50
3136;DHT22;1578;47.658;9.922;2023-12-20T09:13:03;4.70;96.60
3136;DHT22;1578;47.658;9.922;2023-12-20T09:15:29;4.70;96.00
3136;DHT22;1578;47.658;9.922;2023-12-20T09:17:55;4.70;96.20
3136;DHT22;1578;47.658;9.922;2023-12-20T09:20:21;4.60;95.80
3136;DHT22;1578;47.658;9.922;2023-12-20T09:22:49;4.60;96.60
3136;DHT22;1578;47.658;9.922;2023-12-20T09:25:14;4.60;97.00
3136;DHT22;1578;47.658;9.922;2023-12-20T09:27:41;4.60;98.10
3136;DHT22;1578;47.658;9.922;2023-12-20T09:30:07;4.60;98.50
3136;DHT22;1578;47.658;9.922;2023-12-20T09:32:32;4.50;99.10
3136;DHT22;1578;47.658;9.922;2023-12-20T09:34:58;4.50;99.90
3136;DHT22;1578;47.658;9.922;2023-12-20T09:37:27;4.50;99.90
3136;DHT22;1578;47.658;9.922;2023-12-20T09:39:53;4.50;99.90
3136;DHT22;1578;47.658;9.922;2023-12-20T09:42:27;4.50;99.90
3136;DHT22;1578;47.658;9.922;2023-12-20T09:44:55;4.50;99.90
3136;DHT22;1578;47.658;9.922;2023-12-20T09:47:23;4.60;99.90
3136;DHT22;1578;47.658;9.922;2023-12-20T09:49:50;4.60;99.90
3136;DHT22;1578;47.658;9.922;2023-12-20T09:52:17;4.60;99.90
3136;DHT22;1578;47.658;9.922;2023-12-20T09:54:44;4.60;99.90
3136;DHT22;1578;47.658;9.922;2023-12-20T09:57:10;4.50;99.90
3136;DHT22;1578;47.658;9.922;2023-12-20T09:59:36;4.50;99.90
3136;DHT22;1578;47.658;9.922;2023-12-20T10:02:02;4.50;99.90
3136;DHT22;1578;47.658;9.922;2023-12-20T10:04:32;4.50;99.90
3136;DHT22;1578;47.658;9.922;2023-12-20T10:07:02;4.50;99.90
3136;DHT22;1578;47.658;9.922;2023-12-20T10:09:32;4.60;99.90
3136;DHT22;1578;47.658;9.922;2023-12-20T10:12:00;4.50;99.90
3136;DHT22;1578;47.658;9.922;2023-12-20T10:14:25;4.60;99.90
3136;DHT22;1578;47.658;9.922;2023-12-20T10:16:51;4.60;99.90
3136;DHT22;1578;47.658;9.922;2023-12-20T10:19:17;4.60;99.90
3136;DHT22;1578;47.658;9.922;2023-12-20T10:21:43;4.60;99.90
3136;DHT22;1578;47.658;9.922;2023-12-20T10:24:17;4.60;99.90
3136;DHT22;1578;47.658;9.922;2023-12-20T10:26:44;4.60;99.90
3136;DHT22;1578;47.658;9.922;2023-12-20T10:29:10;4.60;99.90
3136;DHT22;1578;47.658;9.922;2023-12-20T10:31:35;4.70;99.90
3136;DHT22;1578;47.658;9.922;2023-12-20T10:34:02;4.70;99.90
3136;DHT22;1578;47.658;9.922;2023-12-20T10:36:31;4.80;99.90
3136;DHT22;1578;47.658;9.922;2023-12-20T10:38:57;4.70;99.90
3136;DHT22;1578;47.658;9.922;2023-12-20T10:41:32;4.80;99.90
3136;DHT22;1578;47.658;9.922;2023-12-20T10:44:02;4.80;99.90
3136;DHT22;1578;47.658;9.922;2023-12-20T10:46:31;4.70;99.90
3136;DHT22;1578;47.658;9.922;2023-12-20T10:49:01;4.80;99.90
3136;DHT22;1578;47.658;9.922;2023-12-20T10:51:27;4.80;99.90
3136;DHT22;1578;47.658;9.922;2023-12-20T10:53:55;4.70;99.90
3136;DHT22;1578;47.658;9.922;2023-12-20T10:56:21;4.70;99.90
3136;DHT22;1578;47.658;9.922;2023-12-20T10:58:49;4.70;99.90
3136;DHT22;1578;47.658;9.922;2023-12-20T11:01:15;4.70;99.90
3136;DHT22;1578;47.658;9.922;2023-12-20T11:03:52;4.80;99.90
3136;DHT22;1578;47.658;9.922;2023-12-20T11:06:29;4.90;99.90
3136;DHT22;1578;47.658;9.922;2023-12-20T11:14:25;4.90;99.90
3136;DHT22;1578;47.658;9.922;2023-12-20T11:17:06;5.00;99.90
3136;DHT22;1578;47.658;9.922;2023-12-20T11:19:31;5.00;99.90
3136;DHT22;1578;47.658;9.922;2023-12-20T11:21:57;5.00;99.90
3136;DHT22;1578;47.658;9.922;2023-12-20T11:24:23;5.00;99.90
3136;DHT22;1578;47.658;9.922;2023-12-20T11:26:49;5.00;99.90
3136;DHT22;1578;47.658;9.922;2023-12-20T11:29:52;5.10;99.90
3136;DHT22;1578;47.658;9.922;2023-12-20T11:35:01;5.00;99.90
3136;DHT22;1578;47.658;9.922;2023-12-20T11:37:30;5.10;99.90
3136;DHT22;1578;47.658;9.922;2023-12-20T11:40:17;5.10;99.90
3136;DHT22;1578;47.658;9.922;2023-12-20T11:42:49;5.20;99.90
3136;DHT22;1578;47.658;9.922;2023-12-20T11:45:16;5.20;99.90
3136;DHT22;1578;47.658;9.922;2023-12-20T11:47:46;5.10;99.90
3136;DHT22;1578;47.658;9.922;2023-12-20T11:50:12;5.10;99.90
3136;DHT22;1578;47.658;9.922;2023-12-20T11:52:38;5.10;99.90
3136;DHT22;1578;47.658;9.922;2023-12-20T11:55:04;5.10;99.90
3136;DHT22;1578;47.658;9.922;2023-12-20T11:57:33;5.10;99.90
3136;DHT22;1578;47.658;9.922;2023-12-20T11:59:59;5.20;99.90
3136;DHT22;1578;47.658;9.922;2023-12-20T12:02:25;5.20;99.90
3136;DHT22;1578;47.658;9.922;2023-12-20T12:04:51;5.10;99.90
3136;DHT22;1578;47.658;9.922;2023-12-20T12:07:17;5.10;99.90
3136;DHT22;1578;47.658;9.922;2023-12-20T12:09:43;5.10;99.90
3136;DHT22;1578;47.658;9.922;2023-12-20T12:12:10;5.10;99.90
3136;DHT22;1578;47.658;9.922;2023-12-20T12:14:36;5.00;99.90
3136;DHT22;1578;47.658;9.922;2023-12-20T12:17:03;5.10;99.90
3136;DHT22;1578;47.658;9.922;2023-12-20T12:19:29;5.10;99.90
3136;DHT22;1578;47.658;9.922;2023-12-20T12:22:07;5.00;99.90
3136;DHT22;1578;47.658;9.922;2023-12-20T12:24:36;5.00;99.90
3136;DHT22;1578;47.658;9.922;2023-12-20T12:27:02;5.10;99.90
3136;DHT22;1578;47.658;9.922;2023-12-20T12:29:27;5.20;99.90
3136;DHT22;1578;47.658;9.922;2023-12-20T12:31:53;5.20;99.90
3136;DHT22;1578;47.658;9.922;2023-12-20T12:34:19;5.30;99.90
3136;DHT22;1578;47.658;9.922;2023-12-20T12:36:45;5.40;98.60
3136;DHT22;1578;47.658;9.922;2023-12-20T12:39:18;5.30;97.90
3136;DHT22;1578;47.658;9.922;2023-12-20T12:41:44;5.30;98.40
3136;DHT22;1578;47.658;9.922;2023-12-20T12:44:09;5.30;99.10
3136;DHT22;1578;47.658;9.922;2023-12-20T12:46:35;5.30;99.10
3136;DHT22;1578;47.658;9.922;2023-12-20T12:49:00;5.30;98.90
3136;DHT22;1578;47.658;9.922;2023-12-20T12:51:26;5.40;98.80
3136;DHT22;1578;47.658;9.922;2023-12-20T12:53:52;5.40;99.30
3136;DHT22;1578;47.658;9.922;2023-12-20T12:56:18;5.50;98.80
3136;DHT22;1578;47.658;9.922;2023-12-20T12:58:43;5.50;97.80
3136;DHT22;1578;47.658;9.922;2023-12-20T13:01:09;5.50;97.60
3136;DHT22;1578;47.658;9.922;2023-12-20T13:03:35;5.50;97.80
3136;DHT22;1578;47.658;9.922;2023-12-20T13:06:01;5.60;98.30
3136;DHT22;1578;47.658;9.922;2023-12-20T13:08:27;5.60;97.90
3136;DHT22;1578;47.658;9.922;2023-12-20T13:10:53;5.60;97.10
3136;DHT22;1578;47.658;9.922;2023-12-20T13:13:18;5.70;96.60
3136;DHT22;1578;47.658;9.922;2023-12-20T13:15:44;5.80;96.70
3136;DHT22;1578;47.658;9.922;2023-12-20T13:18:16;5.70;94.90
3136;DHT22;1578;47.658;9.922;2023-12-20T13:20:42;5.70;95.00
3136;DHT22;1578;47.658;9.922;2023-12-20T13:23:08;5.60;95.20
3136;DHT22;1578;47.658;9.922;2023-12-20T13:25:33;5.50;95.40
3136;DHT22;1578;47.658;9.922;2023-12-20T13:27:59;5.50;95.20
3136;DHT22;1578;47.658;9.922;2023-12-20T13:30:25;5.50;95.50
3136;DHT22;1578;47.658;9.922;2023-12-20T13:32:50;5.50;96.20
3136;DHT22;1578;47.658;9.922;2023-12-20T13:35:16;5.50;96.30
3136;DHT22;1578;47.658;9.922;2023-12-20T13:37:41;5.50;96.50
3136;DHT22;1578;47.658;9.922;2023-12-20T13:40:07;5.50;96.40
3136;DHT22;1578;47.658;9.922;2023-12-20T13:42:33;5.50;95.30
3136;DHT22;1578;47.658;9.922;2023-12-20T13:44:59;5.50;96.00
3136;DHT22;1578;47.658;9.922;2023-12-20T13:47:24;5.40;96.00
3136;DHT22;1578;47.658;9.922;2023-12-20T13:49:50;5.40;97.00
3136;DHT22;1578;47.658;9.922;2023-12-20T13:52:15;5.40;95.20
3136;DHT22;1578;47.658;9.922;2023-12-20T13:54:41;5.40;95.50
3136;DHT22;1578;47.658;9.922;2023-12-20T13:57:07;5.20;95.50
3136;DHT22;1578;47.658;9.922;2023-12-20T13:59:32;5.30;96.10
3136;DHT22;1578;47.658;9.922;2023-12-20T14:01:58;5.30;95.10
3136;DHT22;1578;47.658;9.922;2023-12-20T14:04:24;5.30;95.10
3136;DHT22;1578;47.658;9.922;2023-12-20T14:06:49;5.30;95.10
3136;DHT22;1578;47.658;9.922;2023-12-20T14:09:15;5.30;94.50
3136;DHT22;1578;47.658;9.922;2023-12-20T14:11:41;5.30;94.70
3136;DHT22;1578;47.658;9.922;2023-12-20T14:14:07;5.30;94.20
3136;DHT22;1578;47.658;9.922;2023-12-20T14:16:34;5.30;94.80
3136;DHT22;1578;47.658;9.922;2023-12-20T14:19:00;5.30;94.40
3136;DHT22;1578;47.658;9.922;2023-12-20T14:21:26;5.30;94.50
3136;DHT22;1578;47.658;9.922;2023-12-20T14:23:51;5.30;93.90
3136;DHT22;1578;47.658;9.922;2023-12-20T14:26:17;5.20;92.60
3136;DHT22;1578;47.658;9.922;2023-12-20T14:28:43;5.20;92.60
3136;DHT22;1578;47.658;9.922;2023-12-20T14:31:09;5.30;91.60
3136;DHT22;1578;47.658;9.922;2023-12-20T14:33:35;5.20;91.60
3136;DHT22;1578;47.658;9.922;2023-12-20T14:36:03;5.10;92.60
3136;DHT22;1578;47.658;9.922;2023-12-20T14:38:33;5.10;91.90
3136;DHT22;1578;47.658;9.922;2023-12-20T14:40:59;5.00;92.40
3136;DHT22;1578;47.658;9.922;2023-12-20T14:43:26;5.00;92.40
3136;DHT22;1578;47.658;9.922;2023-12-20T14:45:52;5.00;91.80
3136;DHT22;1578;47.658;9.922;2023-12-20T14:48:18;5.00;91.20
3136;DHT22;1578;47.658;9.922;2023-12-20T14:50:44;5.00;90.40
3136;DHT22;1578;47.658;9.922;2023-12-20T14:53:09;5.10;90.30
3136;DHT22;1578;47.658;9.922;2023-12-20T14:55:35;5.00;90.20
3136;DHT22;1578;47.658;9.922;2023-12-20T14:58:01;5.00;90.20
3136;DHT22;1578;47.658;9.922;2023-12-20T15:00:27;4.90;90.80
3136;DHT22;1578;47.658;9.922;2023-12-20T15:02:53;4.70;91.50
3136;DHT22;1578;47.658;9.922;2023-12-20T15:05:21;4.80;91.50
3136;DHT22;1578;47.658;9.922;2023-12-20T15:07:47;4.70;91.20
3136;DHT22;1578;47.658;9.922;2023-12-20T15:10:13;4.60;90.80
3136;DHT22;1578;47.658;9.922;2023-12-20T15:12:39;4.60;89.70
3136;DHT22;1578;47.658;9.922;2023-12-20T15:15:05;4.60;89.70
3136;DHT22;1578;47.658;9.922;2023-12-20T15:17:31;4.40;89.80
3136;DHT22;1578;47.658;9.922;2023-12-20T15:19:57;4.40;88.60
3136;DHT22;1578;47.658;9.922;2023-12-20T15:22:22;4.40;88.10
3136;DHT22;1578;47.658;9.922;2023-12-20T15:24:49;4.30;87.80
3136;DHT22;1578;47.658;9.922;2023-12-20T15:27:17;4.20;89.60
3136;DHT22;1578;47.658;9.922;2023-12-20T15:29:43;4.10;87.60
3136;DHT22;1578;47.658;9.922;2023-12-20T15:32:09;4.10;88.90
3136;DHT22;1578;47.658;9.922;2023-12-20T15:34:34;4.10;85.80
3136;DHT22;1578;47.658;9.922;2023-12-20T15:37:00;4.10;87.60
3136;DHT22;1578;47.658;9.922;2023-12-20T15:39:25;4.10;87.40
3136;DHT22;1578;47.658;9.922;2023-12-20T15:41:51;4.10;88.90
3136;DHT22;1578;47.658;9.922;2023-12-20T15:44:17;4.10;89.50
3136;DHT22;1578;47.658;9.922;2023-12-20T15:46:43;4.10;87.60
3136;DHT22;1578;47.658;9.922;2023-12-20T15:49:08;4.10;86.40
3136;DHT22;1578;47.658;9.922;2023-12-20T15:51:36;4.10;86.00
3136;DHT22;1578;47.658;9.922;2023-12-20T15:54:02;4.10;85.80
3136;DHT22;1578;47.658;9.922;2023-12-20T15:56:32;4.20;82.10
3136;DHT22;1578;47.658;9.922;2023-12-20T15:58:58;4.20;82.10
3136;DHT22;1578;47.658;9.922;2023-12-20T16:01:24;4.20;79.80
3136;DHT22;1578;47.658;9.922;2023-12-20T16:03:50;4.10;82.20
3136;DHT22;1578;47.658;9.922;2023-12-20T16:06:16;4.10;84.00
3136;DHT22;1578;47.658;9.922;2023-12-20T16:08:42;4.10;83.60
3136;DHT22;1578;47.658;9.922;2023-12-20T16:11:08;4.10;84.40
3136;DHT22;1578;47.658;9.922;2023-12-20T16:13:33;4.00;84.90
3136;DHT22;1578;47.658;9.922;2023-12-20T16:16:02;4.00;87.50
3136;DHT22;1578;47.658;9.922;2023-12-20T16:18:29;4.00;87.10